createdAt,value
2023-04-24T00:00:46.283Z,15.17
2023-04-24T00:03:17.439Z,15.14
2023-04-24T00:05:51.000Z,15.18
2023-04-24T00:08:22.449Z,15.15
2023-04-24T00:10:53.962Z,15.24
2023-04-24T00:13:24.432Z,15.10
2023-04-24T00:15:54.969Z,15.09
2023-04-24T00:18:25.632Z,15.01
2023-04-24T00:20:58.651Z,14.95
2023-04-24T00:23:29.114Z,14.94
2023-04-24T00:25:59.579Z,14.88
2023-04-24T00:28:30.041Z,14.93
2023-04-24T00:31:00.713Z,14.85
2023-04-24T00:33:31.218Z,14.87
2023-04-24T00:36:04.362Z,14.77
2023-04-24T00:38:34.936Z,14.76
2023-04-24T00:41:05.673Z,14.72
2023-04-24T00:43:36.649Z,14.59
2023-04-24T00:46:07.847Z,14.65
2023-04-24T00:48:39.034Z,14.67
2023-04-24T00:51:12.300Z,14.72
2023-04-24T00:53:43.236Z,14.71
2023-04-24T00:56:14.333Z,14.75
2023-04-24T00:58:48.842Z,14.75
2023-04-24T01:01:22.120Z,14.78
2023-04-24T01:03:59.234Z,14.80
2023-04-24T01:06:34.563Z,14.77
2023-04-24T01:09:05.230Z,14.55
2023-04-24T01:11:36.413Z,14.49
2023-04-24T01:14:07.579Z,14.47
2023-04-24T01:16:41.190Z,14.33
2023-04-24T01:19:11.960Z,14.34
2023-04-24T01:21:47.550Z,14.43
2023-04-24T01:24:23.298Z,14.40
2023-04-24T01:26:57.019Z,14.42
2023-04-24T01:29:28.062Z,14.34
2023-04-24T01:31:59.929Z,14.28
2023-04-24T01:34:30.751Z,14.37
2023-04-24T01:37:01.053Z,14.41
2023-04-24T01:39:34.733Z,14.26
2023-04-24T01:42:05.891Z,14.20
2023-04-24T01:44:37.736Z,14.35
2023-04-24T01:47:09.885Z,14.43
2023-04-24T01:49:44.692Z,14.36
2023-04-24T01:52:20.655Z,14.23
2023-04-24T01:54:54.659Z,14.28
2023-04-24T01:57:25.217Z,14.17
2023-04-24T01:59:56.081Z,14.17
2023-04-24T02:02:28.761Z,14.14
2023-04-24T02:05:04.317Z,14.05
2023-04-24T02:07:34.841Z,14.03
2023-04-24T02:10:09.930Z,14.14
2023-04-24T02:12:40.784Z,14.09
2023-04-24T02:15:13.133Z,13.99
2023-04-24T02:17:43.867Z,14.07
2023-04-24T02:20:15.159Z,14.13
2023-04-24T02:22:45.746Z,14.13
2023-04-24T02:25:18.937Z,14.12
2023-04-24T02:27:53.500Z,14.06
2023-04-24T02:30:24.407Z,14.13
2023-04-24T02:32:54.958Z,14.09
2023-04-24T02:35:25.443Z,14.00
2023-04-24T02:37:58.303Z,13.95
2023-04-24T02:40:31.433Z,13.86
2023-04-24T02:43:02.036Z,13.86
2023-04-24T02:45:35.977Z,13.80
2023-04-24T02:48:07.838Z,13.71
2023-04-24T02:50:38.916Z,13.75
2023-04-24T02:53:09.237Z,13.77
2023-04-24T02:55:43.592Z,13.83
2023-04-24T02:58:18.296Z,13.91
2023-04-24T03:00:48.857Z,13.94
2023-04-24T03:03:19.616Z,13.93
2023-04-24T03:05:50.218Z,13.94
2023-04-24T03:08:21.068Z,13.80
2023-04-24T03:10:55.507Z,13.81
2023-04-24T03:13:25.959Z,13.81
2023-04-24T03:15:56.984Z,13.82
2023-04-24T03:18:27.453Z,13.75
2023-04-24T03:20:58.414Z,13.62
2023-04-24T03:23:28.805Z,13.59
2023-04-24T03:26:08.318Z,13.58
2023-04-24T03:28:42.138Z,13.54
2023-04-24T03:31:12.877Z,13.50
2023-04-24T03:33:43.581Z,13.49
2023-04-24T03:36:14.581Z,13.52
2023-04-24T03:38:45.750Z,13.49
2023-04-24T03:41:29.965Z,13.49
2023-04-24T03:44:08.058Z,13.48
2023-04-24T03:46:39.235Z,13.43
2023-04-24T03:49:10.854Z,13.40
2023-04-24T03:51:45.610Z,13.36
2023-04-24T03:54:22.945Z,13.25
2023-04-24T03:57:03.237Z,13.19
2023-04-24T03:59:37.298Z,13.17
2023-04-24T04:02:20.230Z,13.20
2023-04-24T04:04:51.795Z,13.20
2023-04-24T04:07:22.440Z,13.24
2023-04-24T04:09:54.348Z,13.19
2023-04-24T04:12:30.339Z,13.16
2023-04-24T04:15:02.238Z,13.23
2023-04-24T04:17:35.360Z,13.22
2023-04-24T04:20:13.253Z,13.30
2023-04-24T04:22:44.874Z,13.41
2023-04-24T04:25:21.017Z,13.53
2023-04-24T04:27:55.322Z,13.55
2023-04-24T04:30:29.588Z,13.43
2023-04-24T04:33:06.076Z,13.40
2023-04-24T04:35:38.059Z,13.37
2023-04-24T04:38:09.581Z,13.35
2023-04-24T04:40:48.154Z,13.49
2023-04-24T04:43:23.724Z,13.43
2023-04-24T04:45:57.192Z,13.32
2023-04-24T04:48:52.766Z,13.24
2023-04-24T04:51:23.408Z,13.24
2023-04-24T04:53:54.000Z,13.18
2023-04-24T04:56:24.521Z,13.19
2023-04-24T04:58:58.001Z,13.35
2023-04-24T05:01:29.478Z,13.33
2023-04-24T05:04:00.833Z,13.29
2023-04-24T05:06:32.157Z,13.23
2023-04-24T05:09:04.642Z,13.26
2023-04-24T05:11:42.461Z,13.47
2023-04-24T05:14:16.455Z,13.51
2023-04-24T05:16:47.318Z,13.73
2023-04-24T05:19:19.404Z,13.87
2023-04-24T05:21:50.315Z,13.94
2023-04-24T05:24:21.605Z,13.88
2023-04-24T05:27:14.146Z,13.99
2023-04-24T05:29:47.995Z,14.01
2023-04-24T05:32:18.595Z,14.01
2023-04-24T05:34:49.287Z,14.11
2023-04-24T05:37:22.399Z,14.05
2023-04-24T05:39:52.994Z,13.97
2023-04-24T05:42:23.470Z,14.03
2023-04-24T05:44:58.062Z,14.10
2023-04-24T05:47:28.765Z,14.04
2023-04-24T05:49:59.330Z,14.09
2023-04-24T05:52:30.100Z,14.30
2023-04-24T05:55:00.864Z,14.34
2023-04-24T05:57:36.449Z,14.38
2023-04-24T06:00:13.291Z,14.34
2023-04-24T06:02:55.690Z,14.34
2023-04-24T06:05:27.165Z,14.24
2023-04-24T06:07:57.823Z,14.33
2023-04-24T06:10:31.831Z,14.51
2023-04-24T06:13:03.437Z,14.53
2023-04-24T06:15:38.260Z,14.57
2023-04-24T06:18:11.814Z,14.71
2023-04-24T06:20:43.498Z,14.54
2023-04-24T06:23:14.172Z,14.38
2023-04-24T06:25:44.700Z,14.23
2023-04-24T06:28:17.386Z,14.16
2023-04-24T06:30:50.534Z,14.24
2023-04-24T06:33:23.703Z,14.38
2023-04-24T06:35:54.382Z,14.49
2023-04-24T06:38:24.895Z,14.40
2023-04-24T06:40:55.489Z,14.44
2023-04-24T06:43:26.102Z,14.46
2023-04-24T06:45:59.370Z,14.40
2023-04-24T06:48:30.109Z,14.52
2023-04-24T06:51:00.601Z,14.69
2023-04-24T06:53:31.468Z,14.97
2023-04-24T06:56:02.240Z,14.84
2023-04-24T06:58:32.882Z,14.61
2023-04-24T07:01:06.038Z,14.78
2023-04-24T07:03:36.692Z,14.73
2023-04-24T07:06:09.390Z,14.62
2023-04-24T07:08:40.017Z,14.38
2023-04-24T07:11:10.499Z,14.38
2023-04-24T07:13:43.103Z,14.41
2023-04-24T07:16:16.486Z,14.49
2023-04-24T07:18:47.044Z,14.45
2023-04-24T07:21:17.768Z,14.54
2023-04-24T07:23:48.484Z,14.61
2023-04-24T07:26:19.032Z,14.56
2023-04-24T07:28:49.533Z,14.71
2023-04-24T07:31:23.041Z,14.60
2023-04-24T07:33:53.619Z,14.61
2023-04-24T07:36:25.356Z,14.50
2023-04-24T07:38:56.678Z,14.58
2023-04-24T07:41:29.171Z,14.44
2023-04-24T07:43:59.642Z,14.39
2023-04-24T07:46:34.538Z,14.51
2023-04-24T07:49:12.487Z,14.53
2023-04-24T07:51:44.594Z,14.50
2023-04-24T07:54:15.244Z,14.68
2023-04-24T07:56:46.805Z,14.57
2023-04-24T07:59:17.444Z,14.65
2023-04-24T08:01:50.579Z,14.77
2023-04-24T08:04:21.960Z,14.81
2023-04-24T08:06:52.776Z,14.99
2023-04-24T08:09:23.760Z,14.94
2023-04-24T08:11:54.472Z,14.87
2023-04-24T08:14:24.920Z,14.90
2023-04-24T08:17:01.349Z,14.88
2023-04-24T08:19:31.824Z,14.76
2023-04-24T08:22:02.268Z,14.75
2023-04-24T08:24:32.739Z,14.81
2023-04-24T08:27:03.467Z,14.90
2023-04-24T08:29:34.115Z,15.02
2023-04-24T08:32:07.882Z,15.27
2023-04-24T08:34:38.527Z,15.35
2023-04-24T08:37:09.006Z,15.27
2023-04-24T08:39:39.546Z,15.29
2023-04-24T08:42:10.297Z,15.39
2023-04-24T08:44:41.218Z,15.50
2023-04-24T08:47:16.270Z,15.48
2023-04-24T08:49:47.642Z,15.39
2023-04-24T08:52:18.183Z,15.68
2023-04-24T08:54:50.581Z,15.83
2023-04-24T08:57:21.828Z,15.77
2023-04-24T08:59:53.203Z,15.71
2023-04-24T09:02:27.608Z,15.85
2023-04-24T09:05:00.204Z,16.24
2023-04-24T09:07:34.801Z,16.45
2023-04-24T09:10:06.197Z,16.56
2023-04-24T09:12:37.166Z,16.77
2023-04-24T09:15:09.689Z,16.61
2023-04-24T09:17:42.976Z,16.26
2023-04-24T09:20:14.165Z,16.08
2023-04-24T09:22:44.801Z,15.82
2023-04-24T09:25:15.571Z,15.67
2023-04-24T09:27:47.896Z,15.53
2023-04-24T09:30:26.293Z,15.64
2023-04-24T09:33:14.901Z,15.46
2023-04-24T09:35:46.994Z,15.38
2023-04-24T09:38:17.578Z,15.16
2023-04-24T09:40:48.274Z,15.15
2023-04-24T09:43:19.195Z,15.29
2023-04-24T09:45:49.412Z,15.52
2023-04-24T09:48:22.652Z,15.64
2023-04-24T09:50:56.940Z,15.35
2023-04-24T09:53:29.732Z,15.19
2023-04-24T09:56:00.785Z,15.27
2023-04-24T09:58:33.262Z,15.44
2023-04-24T10:01:03.695Z,15.56
2023-04-24T10:03:38.017Z,15.78
2023-04-24T10:06:10.273Z,16.39
2023-04-24T10:08:41.682Z,17.50
2023-04-24T10:11:12.725Z,18.68
2023-04-24T10:13:44.635Z,19.30
2023-04-24T10:16:15.187Z,18.47
2023-04-24T10:18:49.081Z,17.65
2023-04-24T10:21:21.244Z,17.51
2023-04-24T10:23:53.381Z,17.69
2023-04-24T10:26:24.574Z,17.90
2023-04-24T10:28:56.229Z,18.35
2023-04-24T10:31:27.102Z,18.86
2023-04-24T10:34:01.131Z,19.35
2023-04-24T10:36:34.505Z,18.71
2023-04-24T10:39:16.029Z,18.46
2023-04-24T10:41:47.597Z,18.35
2023-04-24T10:44:20.440Z,19.55
2023-04-24T10:46:57.745Z,20.02
2023-04-24T10:49:50.638Z,20.38
2023-04-24T10:52:27.032Z,20.08
2023-04-24T10:54:59.279Z,19.53
2023-04-24T10:57:37.405Z,19.74
2023-04-24T11:00:19.591Z,20.23
2023-04-24T11:02:54.982Z,21.01
2023-04-24T11:06:04.617Z,19.69
2023-04-24T11:08:41.982Z,18.68
2023-04-24T11:11:17.596Z,18.42
2023-04-24T11:14:12.344Z,19.02
2023-04-24T11:16:48.909Z,19.75
2023-04-24T11:19:27.517Z,19.82
2023-04-24T11:22:05.271Z,18.88
2023-04-24T11:24:45.334Z,18.24
2023-04-24T11:27:23.633Z,18.71
2023-04-24T11:30:04.965Z,19.33
2023-04-24T11:32:40.581Z,18.79
2023-04-24T11:35:18.002Z,17.93
2023-04-24T11:38:18.700Z,17.33
2023-04-24T11:40:48.844Z,17.13
2023-04-24T11:43:22.112Z,17.16
2023-04-24T11:45:53.154Z,17.52
2023-04-24T11:48:24.827Z,18.59
2023-04-24T11:50:57.337Z,19.93
2023-04-24T11:53:30.334Z,20.93
2023-04-24T11:56:07.095Z,20.62
2023-04-24T11:58:39.792Z,21.10
2023-04-24T12:01:10.260Z,21.62
2023-04-24T12:03:41.105Z,22.71
2023-04-24T12:06:12.833Z,22.07
2023-04-24T12:08:45.924Z,21.34
2023-04-24T12:11:20.911Z,19.96
2023-04-24T12:13:51.351Z,19.10
2023-04-24T12:16:22.235Z,18.81
2023-04-24T12:18:55.655Z,19.20
2023-04-24T12:21:28.460Z,19.63
2023-04-24T12:24:02.760Z,19.63
2023-04-24T12:26:33.375Z,19.48
2023-04-24T12:29:09.229Z,18.78
2023-04-24T12:31:39.812Z,18.59
2023-04-24T12:34:23.061Z,18.48
2023-04-24T12:36:54.062Z,18.80
2023-04-24T12:39:27.927Z,18.58
2023-04-24T12:42:02.486Z,19.39
2023-04-24T12:44:38.290Z,18.02
2023-04-24T12:47:08.797Z,17.54
2023-04-24T12:49:39.403Z,17.36
2023-04-24T12:52:09.774Z,16.93
2023-04-24T12:54:42.920Z,16.79
2023-04-24T12:57:13.371Z,17.16
2023-04-24T12:59:44.023Z,18.67
2023-04-24T13:02:15.517Z,20.13
2023-04-24T13:04:46.027Z,21.82
2023-04-24T13:07:16.869Z,20.25
2023-04-24T13:09:53.384Z,20.42
2023-04-24T13:12:25.166Z,19.41
2023-04-24T13:14:55.627Z,18.82
2023-04-24T13:17:26.445Z,18.74
2023-04-24T13:19:59.254Z,18.60
2023-04-24T13:22:29.797Z,18.83
2023-04-24T13:25:02.916Z,18.35
2023-04-24T13:27:33.316Z,18.07
2023-04-24T13:30:04.011Z,18.25
2023-04-24T13:32:34.651Z,18.60
2023-04-24T13:35:05.164Z,17.71
2023-04-24T13:37:36.261Z,17.18
2023-04-24T13:40:11.573Z,17.01
2023-04-24T13:42:42.100Z,16.99
2023-04-24T13:45:24.699Z,16.89
2023-04-24T13:47:58.259Z,17.61
2023-04-24T13:50:28.763Z,20.78
2023-04-24T13:53:02.638Z,22.28
2023-04-24T13:55:36.304Z,23.18
2023-04-24T13:58:07.720Z,23.81
2023-04-24T14:00:38.193Z,24.30
2023-04-24T14:03:08.435Z,24.88
2023-04-24T14:05:39.263Z,23.07
2023-04-24T14:08:09.921Z,22.29
2023-04-24T14:10:42.944Z,20.92
2023-04-24T14:13:13.449Z,20.13
2023-04-24T14:15:44.005Z,20.17
2023-04-24T14:18:14.218Z,20.71
2023-04-24T14:20:44.755Z,20.53
2023-04-24T14:23:18.425Z,20.35
2023-04-24T14:25:53.622Z,19.78
2023-04-24T14:28:25.176Z,19.21
2023-04-24T14:30:57.238Z,18.68
2023-04-24T14:33:27.618Z,18.19
2023-04-24T14:35:58.029Z,17.88
2023-04-24T14:38:28.405Z,17.64
2023-04-24T14:43:36.462Z,16.46
2023-04-24T14:46:07.060Z,16.05
2023-04-24T14:48:37.421Z,15.62
2023-04-24T14:51:07.879Z,15.43
2023-04-24T14:53:38.545Z,15.29
2023-04-24T14:56:11.641Z,15.47
2023-04-24T14:58:42.256Z,15.68
2023-04-24T15:01:12.697Z,16.12
2023-04-24T15:03:43.190Z,16.33
2023-04-24T15:06:13.878Z,16.30
2023-04-24T15:08:44.291Z,16.43
2023-04-24T15:11:17.307Z,16.28
2023-04-24T15:13:48.929Z,16.32
2023-04-24T15:16:19.567Z,16.97
2023-04-24T15:18:50.056Z,17.04
2023-04-24T15:21:20.536Z,16.92
2023-04-24T15:23:51.095Z,16.50
2023-04-24T15:26:24.363Z,16.38
2023-04-24T15:28:55.583Z,16.53
2023-04-24T15:31:28.323Z,16.54
2023-04-24T15:33:58.756Z,16.56
2023-04-24T15:36:29.253Z,16.61
2023-04-24T15:38:59.637Z,16.71
2023-04-24T15:41:32.817Z,16.84
2023-04-24T15:44:03.241Z,16.72
2023-04-24T15:46:33.844Z,16.28
2023-04-24T15:49:04.390Z,16.21
2023-04-24T15:51:34.830Z,16.25
2023-04-24T15:54:05.271Z,16.18
2023-04-24T15:56:38.527Z,15.73
2023-04-24T15:59:09.200Z,15.59
2023-04-24T16:01:40.185Z,15.59
2023-04-24T16:04:11.018Z,15.56
2023-04-24T16:06:41.264Z,15.49
2023-04-24T16:09:13.653Z,15.50
2023-04-24T16:11:46.776Z,15.44
2023-04-24T16:14:17.260Z,15.45
2023-04-24T16:16:47.742Z,15.65
2023-04-24T16:19:18.246Z,15.91
2023-04-24T16:21:48.608Z,15.88
2023-04-24T16:24:18.993Z,15.89
2023-04-24T16:26:52.733Z,16.09
2023-04-24T16:29:24.033Z,16.03
2023-04-24T16:31:54.492Z,15.78
2023-04-24T16:34:24.989Z,15.58
2023-04-24T16:36:55.428Z,15.21
2023-04-24T16:39:27.083Z,15.29
2023-04-24T16:42:00.949Z,15.22
2023-04-24T16:44:31.845Z,14.85
2023-04-24T16:47:02.433Z,14.66
2023-04-24T16:49:33.648Z,14.65
2023-04-24T16:52:04.656Z,14.58
2023-04-24T16:54:36.005Z,14.56
2023-04-24T16:57:09.666Z,14.49
2023-04-24T16:59:41.045Z,14.33
2023-04-24T17:02:12.541Z,14.25
2023-04-24T17:04:43.083Z,14.18
2023-04-24T17:07:13.723Z,14.17
2023-04-24T17:09:44.144Z,14.12
2023-04-24T17:12:17.137Z,14.04
2023-04-24T17:14:47.506Z,13.96
2023-04-24T17:17:20.278Z,13.89
2023-04-24T17:19:51.542Z,13.89
2023-04-24T17:22:22.020Z,13.97
2023-04-24T17:24:52.430Z,13.82
2023-04-24T17:27:25.561Z,13.63
2023-04-24T17:29:56.114Z,13.69
2023-04-24T17:32:26.573Z,13.77
2023-04-24T17:34:57.069Z,13.89
2023-04-24T17:37:27.738Z,14.09
2023-04-24T17:39:58.421Z,14.01
2023-04-24T17:42:31.483Z,14.04
2023-04-24T17:45:01.903Z,14.04
2023-04-24T17:47:32.716Z,13.98
2023-04-24T17:50:03.453Z,14.08
2023-04-24T17:52:35.170Z,14.11
2023-04-24T17:55:05.692Z,14.15
2023-04-24T17:57:38.944Z,14.20
2023-04-24T18:00:11.872Z,14.20
2023-04-24T18:02:42.547Z,14.03
2023-04-24T18:05:13.431Z,14.00
2023-04-24T18:07:44.019Z,14.00
2023-04-24T18:10:14.695Z,14.00
2023-04-24T18:12:47.798Z,14.02
2023-04-24T18:15:18.898Z,14.08
2023-04-24T18:17:49.759Z,13.99
2023-04-24T18:20:21.342Z,13.90
2023-04-24T18:22:52.082Z,13.77
2023-04-24T18:25:27.154Z,13.58
2023-04-24T18:28:00.577Z,13.44
2023-04-24T18:30:31.386Z,13.32
2023-04-24T18:33:02.227Z,13.13
2023-04-24T18:35:32.769Z,13.03
2023-04-24T18:38:03.316Z,12.95
2023-04-24T18:40:33.933Z,12.88
2023-04-24T18:43:07.012Z,12.76
2023-04-24T18:45:37.510Z,12.72
2023-04-24T18:48:08.444Z,12.57
2023-04-24T18:50:40.828Z,12.48
2023-04-24T18:53:14.864Z,12.54
2023-04-24T18:55:45.356Z,12.38
2023-04-24T18:58:18.434Z,12.32
2023-04-24T19:00:48.994Z,12.34
2023-04-24T19:03:19.679Z,12.19
2023-04-24T19:05:50.275Z,12.01
2023-04-24T19:08:20.910Z,12.09
2023-04-24T19:10:51.531Z,12.15
2023-04-24T19:13:24.787Z,12.24
2023-04-24T19:15:55.093Z,12.37
2023-04-24T19:18:26.545Z,12.52
2023-04-24T19:20:57.067Z,12.68
2023-04-24T19:23:27.581Z,12.69
2023-04-24T19:25:58.021Z,12.63
2023-04-24T19:28:31.119Z,12.57
2023-04-24T19:31:01.664Z,12.56
2023-04-24T19:33:34.481Z,12.59
2023-04-24T19:36:05.835Z,12.62
2023-04-24T19:38:36.431Z,12.76
2023-04-24T19:41:07.450Z,12.76
2023-04-24T19:43:40.394Z,12.76
2023-04-24T19:46:13.799Z,12.80
2023-04-24T19:48:44.273Z,12.87
2023-04-24T19:51:14.703Z,12.89
2023-04-24T19:53:46.092Z,12.89
2023-04-24T19:56:16.536Z,12.90
2023-04-24T19:58:49.927Z,12.92
2023-04-24T20:01:21.093Z,12.97
2023-04-24T20:03:51.385Z,13.05
2023-04-24T20:06:21.969Z,13.07
2023-04-24T20:08:52.493Z,13.00
2023-04-24T20:11:23.033Z,12.99
2023-04-24T20:13:56.716Z,12.85
2023-04-24T20:16:27.302Z,12.91
2023-04-24T20:18:57.888Z,12.91
2023-04-24T20:21:31.115Z,12.89
2023-04-24T20:24:01.531Z,12.70
2023-04-24T20:26:32.049Z,12.39
2023-04-24T20:29:05.363Z,12.13
2023-04-24T20:31:36.032Z,12.12
2023-04-24T20:34:06.640Z,12.15
2023-04-24T20:36:37.390Z,12.15
2023-04-24T20:39:08.306Z,12.01
2023-04-24T20:41:38.937Z,11.88
2023-04-24T20:44:11.941Z,11.82
2023-04-24T20:46:42.514Z,11.67
2023-04-24T20:49:13.011Z,11.60
2023-04-24T20:51:44.042Z,11.55
2023-04-24T20:54:14.176Z,11.54
2023-04-24T20:56:44.607Z,11.56
2023-04-24T20:59:17.825Z,11.60
2023-04-24T21:01:50.923Z,11.50
2023-04-24T21:04:21.520Z,11.47
2023-04-24T21:06:51.948Z,11.32
2023-04-24T21:09:22.445Z,11.22
2023-04-24T21:11:56.106Z,11.24
2023-04-24T21:14:29.487Z,11.23
2023-04-24T21:17:01.929Z,11.29
2023-04-24T21:19:32.601Z,11.29
2023-04-24T21:22:03.120Z,11.41
2023-04-24T21:24:33.685Z,11.46
2023-04-24T21:27:04.257Z,11.32
2023-04-24T21:29:37.349Z,11.29
2023-04-24T21:32:08.195Z,11.31
2023-04-24T21:34:38.487Z,11.33
2023-04-24T21:37:09.116Z,11.11
2023-04-24T21:39:39.601Z,11.07
2023-04-24T21:42:10.074Z,10.86
2023-04-24T21:44:43.367Z,10.70
2023-04-24T21:47:13.753Z,10.66
2023-04-24T21:49:44.369Z,10.62
2023-04-24T21:52:14.839Z,10.56
2023-04-24T21:54:45.287Z,10.57
2023-04-24T21:57:16.014Z,10.75
2023-04-24T21:59:49.127Z,10.75
2023-04-24T22:02:19.595Z,10.64
2023-04-24T22:04:50.588Z,10.64
2023-04-24T22:07:21.052Z,10.61
2023-04-24T22:09:51.610Z,10.52
2023-04-24T22:12:22.184Z,10.40
2023-04-24T22:14:55.322Z,10.27
2023-04-24T22:17:26.809Z,10.43
2023-04-24T22:19:57.533Z,10.45
2023-04-24T22:22:28.270Z,10.49
2023-04-24T22:24:58.742Z,10.59
2023-04-24T22:27:29.268Z,10.49
2023-04-24T22:30:02.279Z,10.41
2023-04-24T22:32:33.521Z,10.36
2023-04-24T22:35:05.780Z,10.44
2023-04-24T22:37:36.158Z,10.32
2023-04-24T22:40:08.698Z,10.25
2023-04-24T22:42:39.311Z,10.16
2023-04-24T22:45:15.726Z,10.18
2023-04-24T22:47:46.165Z,10.22
2023-04-24T22:50:16.878Z,10.30
2023-04-24T22:52:47.826Z,10.17
2023-04-24T22:55:18.359Z,10.08
2023-04-24T22:57:48.961Z,10.01
2023-04-24T23:00:22.164Z,10.04
2023-04-24T23:02:53.285Z,9.99
2023-04-24T23:05:25.400Z,10.02
2023-04-24T23:07:55.819Z,9.80
2023-04-24T23:10:27.081Z,9.71
2023-04-24T23:12:57.542Z,9.62
2023-04-24T23:15:30.952Z,9.62
2023-04-24T23:18:01.473Z,9.63
2023-04-24T23:20:32.275Z,9.54
2023-04-24T23:23:04.074Z,9.59
2023-04-24T23:25:35.312Z,9.48
2023-04-24T23:28:05.887Z,9.44
2023-04-24T23:30:39.055Z,9.40
2023-04-24T23:33:09.460Z,9.34
2023-04-24T23:35:40.313Z,9.38
2023-04-24T23:38:13.982Z,9.32
2023-04-24T23:40:47.999Z,9.32
2023-04-24T23:43:18.437Z,9.36
2023-04-24T23:45:51.598Z,9.29
2023-04-24T23:48:22.182Z,9.42
2023-04-24T23:50:52.613Z,9.41
2023-04-24T23:53:23.309Z,9.40
2023-04-24T23:55:57.848Z,9.38
2023-04-24T23:58:28.296Z,9.28
